New Hampshire Logo

Alton, NH Single Family Real Estate Listings

56 Total Real Estate Listings * Click on table heading to sort
Date Posted Property Type Style Address Price Living Area Lot Size Price/Sq Ft.
2018-11-14 Single Family Cape 86 Alton Mountain Alton, NH 03810 $268,000 1,998 sq. ft. 246,550 sq. ft. $134
2018-11-08 Single Family Contemporary 22 Frohock Brook Alton, NH 03810 $207,500 2,554 sq. ft. 31,799 sq. ft. $81
2018-11-04 Single Family Gambrel 119 Lockes Corner Alton, NH 03809 $375,000 3,950 sq. ft. 87,120 sq. ft. $95
2018-11-02 Single Family Cape 381 Rand Hill Alton, NH 03810 $280,000 1,638 sq. ft. 218,236 sq. ft. $171
2018-10-31 Single Family Raised Ranch 45 Stephanie Alton, NH 03810 $120,000 1,266 sq. ft. 24,829 sq. ft. $95
2018-10-23 Single Family Colonial 44 County Alton, NH 03810 $364,000 3,496 sq. ft. 78,408 sq. ft. $104
2018-10-22 Single Family New Englander 346 New Durham Rd Alton, NH 03809 $129,900 1,147 sq. ft. 196,891 sq. ft. $113
2018-10-18 Single Family Cape 14 Mill Cove Alton, NH 03810 $849,000 1,606 sq. ft. 11,761 sq. ft. $529
2018-10-11 Single Family Colonial 63 Ridge Alton, NH 03810 $279,000 2,352 sq. ft. 108,900 sq. ft. $119
2018-10-10 Single Family Cabin; Cottage/Camp 2 Moose Alton, NH 03809 $299,000 643 sq. ft. 4,356 sq. ft. $465
2018-09-29 Single Family Colonial 351 Dudley Alton, NH 03809 $349,000 1,800 sq. ft. 836,352 sq. ft. $194
2018-09-28 Single Family Cape 50 Dewitt Alton, NH 03809 $799,000 5,600 sq. ft. 65,340 sq. ft. $143
2018-09-26 Single Family Contemporary 52 Black Point Alton, NH 03809 $899,000 6,204 sq. ft. 274,428 sq. ft. $145
2018-09-24 Single Family Cape 55 Swan Lake Alton, NH 03809 $285,000 2,216 sq. ft. 43,560 sq. ft. $129
2018-09-22 Single Family Colonial 186 Hamwoods Alton, NH 03809 $320,000 2,660 sq. ft. 345,431 sq. ft. $120
2018-09-21 Single Family Cape 269 Powder Mill Alton, NH 03809 $748,000 2,973 sq. ft. 679,536 sq. ft. $252
2018-09-21 Single Family Ranch 188 Suncook Valley Alton, NH 03809 $137,500 774 sq. ft. 24,829 sq. ft. $178
2018-09-18 Single Family Contemporary 151 Fort Point Alton, NH 03810 $550,000 2,951 sq. ft. 221,285 sq. ft. $186
2018-09-18 Single Family Cape 80 Route 11d Alton, NH 03810 $824,900 1,363 sq. ft. 13,068 sq. ft. $605
2018-09-10 Single Family Contemporary 179 Alton Mountain Alton, NH 03810 $289,900 1,498 sq. ft. 58,370 sq. ft. $194
2018-09-07 Single Family Colonial 40 Frohock Brook Alton, NH 03810 $218,000 1,632 sq. ft. 18,295 sq. ft. $134
2018-08-31 Single Family Cape 220 Rand Hill Alton, NH 03810 $299,900 1,872 sq. ft. 49,223 sq. ft. $160
2018-08-31 Single Family Contemporary 56 East Side Alton, NH 03810 $950,000 5,886 sq. ft. 13,504 sq. ft. $161
2018-08-26 Single Family Cape 129 & 128 East Side Alton, NH 03810 $827,900 1,854 sq. ft. 15,246 sq. ft. $447
2018-08-24 Single Family Contemporary 221 Damon Alton, NH 03809 $1,449,000 2,379 sq. ft. 65,340 sq. ft. $609
2018-08-23 Single Family Log 25 Valley Alton, NH 03809 $225,000 1,440 sq. ft. 130,680 sq. ft. $156
2018-08-19 Single Family Bungalow 138 Spring Street Alton, NH 03810 $329,900 864 sq. ft. 9,583 sq. ft. $382
2018-08-18 Single Family Cape 747 East Side Alton, NH 03809 $249,000 2,556 sq. ft. 87,120 sq. ft. $97
2018-08-16 Single Family Cape 51 Hermit Rd Alton, NH 03810 $249,900 1,688 sq. ft. 56,628 sq. ft. $148
2018-08-08 Single Family Raised Ranch; Ranch; Walkout Lower Level 73 Reed Alton, NH 03810 $559,000 2,695 sq. ft. 196,020 sq. ft. $207
2018-08-06 Single Family Ranch 10 Larry Alton, NH 03809 $189,000 850 sq. ft. 12,197 sq. ft. $222
2018-07-26 Single Family Cape 1653 Mt. Major Alton, NH 03809 $184,900 1,045 sq. ft. 15,246 sq. ft. $177
2018-07-20 Single Family Cottage/Camp 453 E Side Alton, NH 03810 $442,000 624 sq. ft. 21,780 sq. ft. $708
2018-07-12 Single Family Raised Ranch; Walkout Lower Level 59 Hermit Alton, NH 03810 $279,900 1,482 sq. ft. 65,340 sq. ft. $189
2018-07-09 Single Family Cottage/Camp 360 Rattlesnake Alton, NH 03810 $295,000 608 sq. ft. 33,106 sq. ft. $485
2018-07-08 Single Family Log 86 Lily Pond Alton, NH 03809 $249,900 1,906 sq. ft. 46,609 sq. ft. $131
2018-07-05 Single Family Log 172 Alton Mountain Alton, NH 03810 $675,000 4,196 sq. ft. 273,992 sq. ft. $161
2018-07-03 Single Family Cape; New Englander 14 East Side Alton, NH 03810 $599,900 1,345 sq. ft. 4,356 sq. ft. $446
2018-06-28 Single Family Cottage/Camp 78 Treasure Alton, NH 03809 $525,000 1,348 sq. ft. 13,068 sq. ft. $389
2018-06-19 Single Family Contemporary 51 Reed Alton, NH 03810 $450,000 3,232 sq. ft. 69,260 sq. ft. $139
2018-06-18 Single Family Adirondack 102 Timber Ridge Road Alton, NH 03810 $2,950,000 6,696 sq. ft. 58,370 sq. ft. $441
2018-06-14 Single Family Cape 12 Dobbins Alton, NH 03810 $369,900 1,600 sq. ft. 143,312 sq. ft. $231
2018-05-22 Single Family Ranch 29 Alton Shores Alton, NH 03810 $149,900 1,120 sq. ft. 18,295 sq. ft. $134
2018-05-16 Single Family Cape 8-2 Ingalls Alton, NH 03809 $289,900 1,570 sq. ft. 78,844 sq. ft. $185
2018-05-10 Single Family Cabin; Cottage/Camp; Ranch 6 Big Barndoor Alton, NH 03809 $995,000 1,432 sq. ft. 34,848 sq. ft. $695
2018-05-10 Single Family Bungalow; Contemporary 25 Georges Alton, NH 03810 $449,000 1,136 sq. ft. 10,454 sq. ft. $395
2018-05-10 Single Family Cottage/Camp 376 Rattlesnake Alton, NH 03809 $375,000 768 sq. ft. 30,928 sq. ft. $488
2018-04-17 Single Family Antique; Colonial 16 Lily Pond Alton, NH 03809 $375,000 2,614 sq. ft. 1,210,097 sq. ft. $143
2018-03-14 Single Family Cottage/Camp 23 Georges Alton, NH 03809 $574,000 1,216 sq. ft. 7,841 sq. ft. $472
2018-03-09 Single Family Cottage/Camp 104 Railroad Alton, NH 03810 $1,495,000 1,800 sq. ft. 22,216 sq. ft. $831
2018-02-14 Single Family Gambrel; Multi-Level 11 Stonewall Alton, NH 03809 $265,000 1,680 sq. ft. 47,045 sq. ft. $158
2017-06-23 Single Family Contemporary 35 Macduffy Alton, NH 03809 $325,000 2,670 sq. ft. 100,624 sq. ft. $122
2016-05-11 Single Family Colonial 142 Hopewell Alton, NH 03809 $8,900,000 17,228 sq. ft. 308,405 sq. ft. $517
2016-05-11 Single Family Colonial 144 Hopewell Alton, NH 03809 $8,900,000 38,196 sq. ft. 524,027 sq. ft. $233
2016-05-10 Single Family Colonial 142 144 Hopewell Alton, NH 03809 $17,800,000 63,079 sq. ft. 832,432 sq. ft. $282
2015-09-26 Single Family Cottage/Camp 378 Route 11d Alton, NH 03810 $3,900,000 2,718 sq. ft. 255,697 sq. ft. $1,435